Terminal Aerodrome Forecast
Issued by NWS

Home | Current Version | Previous Version | Graphics & Text | Print | Product List | Glossary On
Versions: 1 2 3 4 5 6 7 8 9 10 11 12 13 14 15 16 17 18
000
FTUS43 KGRB 210500
TAFAUW
TAF
KAUW 210520Z 2106/2206 30007KT P6SM BKN025 BKN050
     FM210700 32007KT P6SM -SHRA SCT012 OVC020
      TEMPO 2109/2113 3SM RA BKN006 OVC012
     FM211400 35009KT P6SM BKN015 BKN035
     FM211700 34010G17KT P6SM BKN025
     FM212000 34008KT P6SM SCT035
     FM212300 34005KT P6SM SKC=

USA.gov is the U.S. government's official web portal to all federal, state and local government web resources and services.